Nearby METAR Reports

 

EGQL - Leuchars Raf, United Kingdom
Distance from station: SW 11mi, 17km
Updated: 24/02/2018 08:50
Partly cloudy
Partly cloudy
 Wind from SE
Wind: SE 6 mph , 9 km/h
Temperature: 3°C
Wind Chill: 0°C
Dew Point: 0°C
Humidity: 81%
Barometer: 1026 hPa
Clouds: Partly cloudy
Visibility: 6 miles , 10 km
Cloud details: Partly cloudy 762 m
2018/02/24 08:50 EGQL 240850Z 13005KT 9999 SCT025 03/00 Q1026 BLU
EGPN - Dundee/Riverside, United Kingdom
Distance from station: WSW 13mi, 20km
Updated: 24/02/2018 09:20
Few Clouds
Few Clouds
 Wind from E
Wind: E 6 mph , 9 km/h
Temperature: 4°C
Wind Chill: 2°C
Dew Point: 0°C
Humidity: 75%
Barometer: 1026 hPa
Clouds: Few Clouds
Visibility: 6 miles , 10 km
Cloud details: Few Clouds 762 m
2018/02/24 09:20 EGPN 240920Z 09005KT 9999 FEW025 04/00 Q1026
 
EGPH - Edinburgh Airpor, United Kingdom
Distance from station: SSW 46mi, 74km
Updated: 24/02/2018 09:20
Clear
Clear
 Wind from E
Wind: E 8 mph , 13 km/h
Temperature: 2°C
Wind Chill: -1°C
Dew Point: -2°C
Humidity: 75%
Barometer: 1025 hPa
Summary: Clear
Visibility: greater than 7 miles , 10 km
2018/02/24 09:20 EGPH 240920Z 09007KT CAVOK 02/M02 Q1025
EGPD - Aberdeen/Dyce, United Kingdom
Distance from station: NNE 51mi, 82km
Updated: 24/02/2018 09:20
Mostly cloudy
Mostly cloudy
 Wind from SSE
Wind: SSE 20 mph , 31 km/h
Temperature: 5°C
Wind Chill: 0°C
Dew Point: -1°C
Humidity: 66%
Barometer: 1026 hPa
Clouds: Mostly cloudy
Visibility: 6 miles , 10 km
Cloud details: Mostly cloudy 701 m
2018/02/24 09:20 EGPD 240920Z AUTO 15017KT 9999 BKN023 05/M01 Q1026 NOSIG